createdAt,value
2018-10-16T00:00:19.435Z,99.90
2018-10-16T00:02:49.212Z,99.90
2018-10-16T00:05:19.011Z,99.90
2018-10-16T00:07:48.352Z,99.90
2018-10-16T00:10:23.183Z,99.90
2018-10-16T00:12:52.652Z,99.90
2018-10-16T00:15:22.024Z,99.90
2018-10-16T00:17:51.435Z,99.90
2018-10-16T00:20:20.754Z,99.90
2018-10-16T00:22:50.173Z,99.90
2018-10-16T00:25:19.543Z,99.90
2018-10-16T00:27:48.974Z,99.90
2018-10-16T00:30:18.929Z,99.90
2018-10-16T00:32:48.410Z,99.90
2018-10-16T00:35:17.684Z,99.90
2018-10-16T00:37:46.977Z,99.90
2018-10-16T00:40:16.327Z,99.90
2018-10-16T00:42:45.730Z,99.90
2018-10-16T00:45:15.085Z,99.90
2018-10-16T00:47:44.439Z,99.90
2018-10-16T00:50:13.835Z,99.90
2018-10-16T00:52:43.243Z,99.90
2018-10-16T00:55:12.676Z,99.90
2018-10-16T00:57:42.140Z,99.90
2018-10-16T01:00:12.832Z,99.90
2018-10-16T01:02:43.194Z,99.90
2018-10-16T01:05:13.395Z,99.90
2018-10-16T01:07:43.175Z,99.90
2018-10-16T01:10:13.225Z,99.90
2018-10-16T01:12:42.624Z,99.90
2018-10-16T01:15:12.535Z,99.90
2018-10-16T01:17:41.955Z,99.90
2018-10-16T01:20:12.890Z,99.90
2018-10-16T01:22:42.756Z,99.90
2018-10-16T01:25:13.035Z,99.90
2018-10-16T01:27:42.389Z,99.90
2018-10-16T01:30:11.827Z,99.90
2018-10-16T01:32:41.149Z,99.90
2018-10-16T01:35:11.793Z,99.90
2018-10-16T01:37:41.585Z,99.90
2018-10-16T01:40:11.633Z,99.90
2018-10-16T01:42:41.019Z,99.90
2018-10-16T01:45:11.048Z,99.90
2018-10-16T01:47:40.420Z,99.90
2018-10-16T01:50:09.807Z,99.90
2018-10-16T01:52:39.116Z,99.90
2018-10-16T01:55:08.469Z,99.90
2018-10-16T01:57:37.821Z,99.90
2018-10-16T02:00:08.364Z,99.90
2018-10-16T02:02:37.734Z,99.90
2018-10-16T02:05:07.311Z,99.90
2018-10-16T02:07:36.794Z,99.90
2018-10-16T02:10:06.473Z,99.90
2018-10-16T02:12:36.171Z,99.90
2018-10-16T02:15:06.365Z,99.90
2018-10-16T02:17:35.682Z,99.90
2018-10-16T02:20:05.732Z,99.90
2018-10-16T02:22:35.112Z,99.90
2018-10-16T02:25:04.532Z,99.90
2018-10-16T02:27:33.868Z,99.90
2018-10-16T02:30:03.229Z,99.90
2018-10-16T02:32:32.571Z,99.90
2018-10-16T02:35:01.888Z,99.90
2018-10-16T02:37:31.188Z,99.90
2018-10-16T02:40:00.567Z,99.90
2018-10-16T02:42:29.918Z,99.90
2018-10-16T02:44:59.239Z,99.90
2018-10-16T02:47:28.594Z,99.90
2018-10-16T02:49:58.923Z,99.90
2018-10-16T02:52:28.237Z,99.90
2018-10-16T02:54:57.550Z,99.90
2018-10-16T02:57:27.061Z,99.90
2018-10-16T02:59:56.696Z,99.90
2018-10-16T03:02:26.260Z,99.90
2018-10-16T03:04:55.676Z,99.90
2018-10-16T03:07:25.001Z,99.90
2018-10-16T03:09:54.307Z,99.90
2018-10-16T03:12:23.613Z,99.90
2018-10-16T03:14:52.978Z,99.90
2018-10-16T03:17:22.336Z,99.90
2018-10-16T03:19:51.657Z,99.90
2018-10-16T03:22:20.981Z,99.90
2018-10-16T03:24:50.323Z,99.90
2018-10-16T03:27:19.749Z,99.90
2018-10-16T03:29:49.064Z,99.90
2018-10-16T03:32:18.475Z,99.90
2018-10-16T03:34:47.791Z,99.90
2018-10-16T03:37:17.094Z,99.90
2018-10-16T03:39:46.428Z,99.90
2018-10-16T03:42:16.562Z,99.90
2018-10-16T03:44:45.895Z,99.90
2018-10-16T03:47:15.282Z,99.90
2018-10-16T03:49:44.602Z,99.90
2018-10-16T03:52:13.937Z,99.90
2018-10-16T03:54:43.361Z,99.90
2018-10-16T03:57:12.739Z,99.90
2018-10-16T03:59:42.042Z,99.90
2018-10-16T04:02:11.381Z,99.90
2018-10-16T04:04:40.673Z,99.90
2018-10-16T04:07:10.257Z,99.90
2018-10-16T04:09:39.672Z,99.90
2018-10-16T04:12:09.018Z,99.90
2018-10-16T04:14:38.356Z,99.90
2018-10-16T04:17:07.658Z,99.90
2018-10-16T04:19:37.160Z,99.90
2018-10-16T04:22:07.179Z,99.90
2018-10-16T04:24:36.522Z,99.90
2018-10-16T04:27:05.983Z,99.90
2018-10-16T04:29:35.277Z,99.90
2018-10-16T04:32:04.781Z,99.90
2018-10-16T04:34:34.184Z,99.90
2018-10-16T04:37:03.521Z,99.90
2018-10-16T04:39:32.839Z,99.90
2018-10-16T04:42:02.139Z,99.90
2018-10-16T04:44:31.532Z,99.90
2018-10-16T04:47:00.835Z,99.90
2018-10-16T04:49:30.239Z,99.90
2018-10-16T04:51:59.690Z,99.90
2018-10-16T04:54:29.057Z,99.90
2018-10-16T04:56:58.440Z,99.90
2018-10-16T04:59:27.920Z,99.90
2018-10-16T05:01:57.271Z,99.90
2018-10-16T05:04:26.905Z,99.90
2018-10-16T05:06:56.429Z,99.90
2018-10-16T05:09:25.864Z,99.90
2018-10-16T05:11:56.041Z,99.90
2018-10-16T05:14:25.456Z,99.90
2018-10-16T05:16:55.643Z,99.90
2018-10-16T05:19:25.016Z,99.90
2018-10-16T05:21:54.364Z,99.90
2018-10-16T05:24:23.703Z,99.90
2018-10-16T05:26:53.084Z,99.90
2018-10-16T05:29:22.434Z,99.90
2018-10-16T05:31:51.946Z,99.90
2018-10-16T05:34:21.387Z,99.90
2018-10-16T05:36:50.705Z,99.90
2018-10-16T05:39:20.123Z,99.90
2018-10-16T05:41:49.395Z,99.90
2018-10-16T05:44:18.701Z,99.90
2018-10-16T05:46:48.092Z,99.90
2018-10-16T05:49:17.415Z,99.90
2018-10-16T05:51:47.185Z,99.90
2018-10-16T05:54:16.940Z,99.90
2018-10-16T05:56:46.283Z,99.90
2018-10-16T05:59:15.706Z,99.90
2018-10-16T06:01:45.127Z,99.90
2018-10-16T06:04:14.467Z,99.90
2018-10-16T06:06:43.794Z,99.90
2018-10-16T06:09:13.420Z,99.90
2018-10-16T06:11:42.903Z,99.90
2018-10-16T06:14:12.225Z,99.90
2018-10-16T06:16:41.625Z,99.90
2018-10-16T06:19:10.940Z,99.90
2018-10-16T06:21:40.305Z,99.90
2018-10-16T06:24:09.661Z,99.90
2018-10-16T06:26:38.991Z,99.90
2018-10-16T06:29:08.363Z,99.90
2018-10-16T06:31:37.754Z,99.90
2018-10-16T06:34:07.170Z,99.90
2018-10-16T06:36:36.549Z,99.90
2018-10-16T06:39:09.200Z,99.90
2018-10-16T06:41:38.712Z,99.90
2018-10-16T06:44:08.482Z,99.90
2018-10-16T06:46:37.913Z,99.90
2018-10-16T06:49:07.160Z,99.90
2018-10-16T06:51:36.482Z,99.90
2018-10-16T06:54:06.281Z,99.90
2018-10-16T06:56:35.678Z,99.90
2018-10-16T06:59:05.337Z,99.90
2018-10-16T07:01:34.771Z,99.90
2018-10-16T07:04:04.153Z,99.90
2018-10-16T07:06:33.633Z,99.90
2018-10-16T07:09:02.965Z,99.90
2018-10-16T07:11:32.305Z,99.90
2018-10-16T07:14:02.562Z,99.90
2018-10-16T07:16:32.190Z,99.90
2018-10-16T07:19:01.610Z,99.90
2018-10-16T07:21:31.113Z,99.90
2018-10-16T07:24:00.504Z,99.90
2018-10-16T07:26:31.082Z,99.90
2018-10-16T07:29:00.431Z,99.90
2018-10-16T07:31:29.809Z,99.90
2018-10-16T07:33:59.247Z,99.90
2018-10-16T07:36:28.588Z,99.90
2018-10-16T07:38:58.093Z,99.90
2018-10-16T07:41:27.462Z,99.90
2018-10-16T07:43:56.967Z,99.90
2018-10-16T07:46:26.317Z,99.90
2018-10-16T07:48:55.712Z,99.90
2018-10-16T07:51:25.058Z,99.90
2018-10-16T07:53:54.388Z,99.90
2018-10-16T07:56:23.776Z,99.90
2018-10-16T07:58:53.379Z,99.90
2018-10-16T08:01:22.774Z,99.90
2018-10-16T08:03:52.122Z,99.90
2018-10-16T08:06:21.678Z,99.90
2018-10-16T08:08:51.076Z,99.90
2018-10-16T08:11:20.478Z,99.90
2018-10-16T08:13:49.871Z,99.90
2018-10-16T08:16:19.444Z,99.90
2018-10-16T08:18:48.855Z,99.90
2018-10-16T08:21:18.321Z,99.90
2018-10-16T08:23:47.659Z,99.90
2018-10-16T08:26:17.113Z,99.90
2018-10-16T08:28:46.716Z,99.90
2018-10-16T08:31:16.071Z,99.90
2018-10-16T08:33:45.578Z,99.90
2018-10-16T08:36:15.050Z,99.90
2018-10-16T08:38:55.080Z,99.90
2018-10-16T08:41:30.195Z,99.90
2018-10-16T08:44:11.606Z,99.90
2018-10-16T08:46:52.348Z,99.90
2018-10-16T08:49:32.902Z,99.90
2018-10-16T08:52:02.346Z,99.90
2018-10-16T08:54:31.764Z,99.90
2018-10-16T08:57:01.132Z,99.90
2018-10-16T08:59:30.528Z,99.90
2018-10-16T09:01:59.878Z,99.90
2018-10-16T09:04:29.184Z,99.90
2018-10-16T09:06:58.604Z,99.90
2018-10-16T09:09:28.572Z,99.90
2018-10-16T09:11:58.640Z,99.90
2018-10-16T09:14:29.091Z,99.90
2018-10-16T09:16:58.450Z,99.90
2018-10-16T09:19:27.924Z,99.90
2018-10-16T09:21:57.301Z,99.90
2018-10-16T09:24:26.799Z,99.90
2018-10-16T09:26:56.208Z,99.90
2018-10-16T09:29:25.586Z,99.90
2018-10-16T09:31:55.644Z,99.90
2018-10-16T09:34:25.027Z,99.90
2018-10-16T09:36:54.456Z,99.90
2018-10-16T09:39:25.039Z,99.90
2018-10-16T09:41:54.370Z,99.90
2018-10-16T09:44:23.801Z,99.90
2018-10-16T09:46:53.895Z,99.90
2018-10-16T09:49:23.332Z,99.90
2018-10-16T09:51:53.355Z,99.90
2018-10-16T09:54:22.861Z,99.90
2018-10-16T09:56:52.292Z,99.90
2018-10-16T09:59:21.633Z,99.90
2018-10-16T10:01:54.197Z,99.90
2018-10-16T10:04:24.893Z,99.90
2018-10-16T10:06:54.379Z,99.90
2018-10-16T10:09:24.868Z,99.90
2018-10-16T10:11:54.266Z,99.80
2018-10-16T10:14:23.616Z,99.70
2018-10-16T10:16:53.048Z,98.40
2018-10-16T10:19:22.450Z,99.90
2018-10-16T10:21:51.963Z,99.90
2018-10-16T10:24:21.433Z,99.90
2018-10-16T10:26:51.465Z,99.90
2018-10-16T10:29:20.896Z,96.90
2018-10-16T10:31:50.341Z,99.90
2018-10-16T10:34:22.061Z,98.20
2018-10-16T10:36:51.721Z,99.70
2018-10-16T10:39:21.606Z,93.10
2018-10-16T10:41:52.764Z,90.10
2018-10-16T10:44:22.081Z,91.30
2018-10-16T10:46:51.482Z,93.70
2018-10-16T10:49:20.812Z,91.90
2018-10-16T10:51:50.167Z,95.80
2018-10-16T10:54:20.408Z,97.50
2018-10-16T10:56:49.906Z,92.70
2018-10-16T10:59:19.222Z,87.70
2018-10-16T11:01:48.718Z,90.80
2018-10-16T11:04:18.767Z,93.90
2018-10-16T11:06:48.112Z,82.60
2018-10-16T11:09:17.458Z,77.10
2018-10-16T11:11:52.343Z,85.70
2018-10-16T11:14:21.881Z,85.20
2018-10-16T11:16:51.277Z,81.90
2018-10-16T11:19:21.436Z,80.30
2018-10-16T11:21:52.285Z,85.60
2018-10-16T11:24:21.778Z,82.10
2018-10-16T11:26:51.284Z,71.00
2018-10-16T11:29:20.647Z,63.60
2018-10-16T11:31:50.061Z,65.00
2018-10-16T11:34:20.580Z,66.50
2018-10-16T11:36:50.327Z,69.50
2018-10-16T11:39:19.626Z,63.70
2018-10-16T11:41:49.539Z,60.40
2018-10-16T11:44:18.866Z,56.80
2018-10-16T11:46:49.418Z,58.10
2018-10-16T11:49:18.877Z,57.30
2018-10-16T11:51:49.001Z,57.50
2018-10-16T11:54:18.473Z,55.50
2018-10-16T11:56:47.957Z,56.00
2018-10-16T11:59:17.499Z,52.80
2018-10-16T12:01:46.849Z,56.30
2018-10-16T12:04:16.636Z,54.70
2018-10-16T12:06:46.601Z,52.70
2018-10-16T12:09:15.956Z,53.50
2018-10-16T12:11:45.561Z,54.40
2018-10-16T12:14:14.959Z,51.30
2018-10-16T12:16:49.748Z,54.40
2018-10-16T12:19:24.443Z,62.20
2018-10-16T12:21:53.952Z,58.80
2018-10-16T12:24:23.292Z,58.40
2018-10-16T12:26:53.608Z,63.10
2018-10-16T12:29:22.975Z,66.20
2018-10-16T12:31:52.429Z,66.00
2018-10-16T12:34:21.810Z,68.40
2018-10-16T12:36:52.195Z,71.10
2018-10-16T12:39:22.327Z,75.10
2018-10-16T12:41:52.889Z,81.60
2018-10-16T12:44:23.163Z,82.30
2018-10-16T12:46:52.704Z,86.80
2018-10-16T12:49:22.188Z,88.80
2018-10-16T12:51:52.207Z,88.70
2018-10-16T12:54:22.360Z,88.90
2018-10-16T12:56:51.914Z,88.70
2018-10-16T12:59:21.988Z,90.10
2018-10-16T13:01:51.670Z,90.00
2018-10-16T13:04:22.017Z,87.60
2018-10-16T13:06:52.101Z,91.10
2018-10-16T13:09:22.076Z,90.50
2018-10-16T13:11:52.542Z,89.20
2018-10-16T13:14:21.899Z,90.10
2018-10-16T13:16:51.482Z,90.30
2018-10-16T13:19:20.868Z,90.50
2018-10-16T13:21:50.462Z,91.30
2018-10-16T13:24:20.616Z,91.70
2018-10-16T13:26:50.100Z,92.00
2018-10-16T13:29:19.636Z,92.80
2018-10-16T13:31:49.136Z,91.90
2018-10-16T13:34:18.499Z,92.70
2018-10-16T13:36:47.914Z,92.70
2018-10-16T13:39:20.370Z,90.10
2018-10-16T13:41:50.819Z,90.90
2018-10-16T13:44:20.247Z,91.50
2018-10-16T13:46:50.787Z,90.90
2018-10-16T13:49:20.316Z,90.80
2018-10-16T13:51:50.324Z,91.70
2018-10-16T13:54:19.907Z,91.40
2018-10-16T13:56:49.687Z,91.80
2018-10-16T13:59:19.139Z,92.60
2018-10-16T14:01:49.055Z,93.00
2018-10-16T14:04:19.431Z,93.20
2018-10-16T14:06:48.866Z,93.00
2018-10-16T14:09:18.249Z,92.60
2018-10-16T14:11:47.773Z,92.20
2018-10-16T14:14:17.189Z,92.90
2018-10-16T14:16:46.445Z,94.30
2018-10-16T14:19:15.801Z,94.90
2018-10-16T14:21:45.305Z,96.50
2018-10-16T14:24:14.650Z,97.50
2018-10-16T14:26:44.072Z,98.70
2018-10-16T14:29:13.706Z,99.40
2018-10-16T14:31:43.076Z,99.80
2018-10-16T14:34:12.477Z,99.90
2018-10-16T14:36:42.490Z,99.90
2018-10-16T14:39:13.656Z,99.90
2018-10-16T14:41:43.099Z,99.90
2018-10-16T14:44:12.961Z,99.90
2018-10-16T14:46:42.269Z,99.90
2018-10-16T14:49:11.589Z,99.90
2018-10-16T14:51:40.986Z,99.90
2018-10-16T14:54:10.394Z,99.90
2018-10-16T14:56:39.752Z,99.90
2018-10-16T14:59:09.074Z,99.90
2018-10-16T15:01:38.597Z,99.90
2018-10-16T15:04:08.758Z,99.90
2018-10-16T15:06:38.066Z,99.90
2018-10-16T15:09:09.185Z,99.90
2018-10-16T15:11:39.149Z,99.90
2018-10-16T15:14:12.875Z,99.90
2018-10-16T15:16:43.464Z,99.90
2018-10-16T15:19:13.202Z,99.90
2018-10-16T15:21:42.628Z,99.90
2018-10-16T15:24:12.106Z,99.90
2018-10-16T15:26:41.539Z,99.90
2018-10-16T15:29:10.891Z,99.90
2018-10-16T15:31:40.237Z,99.90
2018-10-16T15:34:09.880Z,99.90
2018-10-16T15:36:39.289Z,99.90
2018-10-16T15:39:12.571Z,99.90
2018-10-16T15:41:42.052Z,99.90
2018-10-16T15:44:11.510Z,99.90
2018-10-16T15:46:40.980Z,99.90
2018-10-16T15:49:16.377Z,99.90
2018-10-16T15:51:50.112Z,99.90
2018-10-16T15:54:28.881Z,99.90
2018-10-16T15:57:00.505Z,99.90
2018-10-16T15:59:30.792Z,99.90
2018-10-16T16:02:03.915Z,99.90
2018-10-16T16:04:33.720Z,99.90
2018-10-16T16:07:05.422Z,99.90
2018-10-16T16:09:35.791Z,99.90
2018-10-16T16:12:05.433Z,99.90
2018-10-16T16:14:35.007Z,99.90
2018-10-16T16:17:04.132Z,99.90
2018-10-16T16:19:33.563Z,99.90
2018-10-16T16:22:03.246Z,99.90
2018-10-16T16:24:32.716Z,99.90
2018-10-16T16:27:02.075Z,99.90
2018-10-16T16:29:32.399Z,99.90
2018-10-16T16:32:01.771Z,99.90
2018-10-16T16:34:31.176Z,99.90
2018-10-16T16:37:00.584Z,99.90
2018-10-16T16:39:30.056Z,99.90
2018-10-16T16:41:59.302Z,99.90
2018-10-16T16:44:28.610Z,99.90
2018-10-16T16:46:58.023Z,99.90
2018-10-16T16:49:27.343Z,99.90
2018-10-16T16:51:56.695Z,99.90
2018-10-16T16:54:26.125Z,99.90
2018-10-16T16:56:55.463Z,99.90
2018-10-16T16:59:24.858Z,99.90
2018-10-16T17:01:54.200Z,99.90
2018-10-16T17:04:23.742Z,99.90
2018-10-16T17:06:53.073Z,99.90
2018-10-16T17:09:22.460Z,99.90
2018-10-16T17:11:51.823Z,99.90
2018-10-16T17:14:21.105Z,99.90
2018-10-16T17:16:50.491Z,99.90
2018-10-16T17:19:20.075Z,99.90
2018-10-16T17:21:49.419Z,99.90
2018-10-16T17:24:18.757Z,99.90
2018-10-16T17:26:48.592Z,99.90
2018-10-16T17:29:17.744Z,99.90
2018-10-16T17:31:47.152Z,99.90
2018-10-16T17:34:16.979Z,99.90
2018-10-16T17:36:46.294Z,99.90
2018-10-16T17:39:15.735Z,99.90
2018-10-16T17:41:45.726Z,99.90
2018-10-16T17:44:15.108Z,99.90
2018-10-16T17:46:44.448Z,99.90
2018-10-16T17:49:13.869Z,99.90
2018-10-16T17:51:43.256Z,99.90
2018-10-16T17:54:12.574Z,99.90
2018-10-16T17:56:41.935Z,99.90
2018-10-16T17:59:11.257Z,99.90
2018-10-16T18:01:40.591Z,99.90
2018-10-16T18:04:10.145Z,99.90
2018-10-16T18:06:39.466Z,99.90
2018-10-16T18:09:08.949Z,99.90
2018-10-16T18:11:38.405Z,99.90
2018-10-16T18:14:08.437Z,99.90
2018-10-16T18:16:37.843Z,99.90
2018-10-16T18:19:07.715Z,99.90
2018-10-16T18:21:37.059Z,99.90
2018-10-16T18:24:07.388Z,99.90
2018-10-16T18:26:36.864Z,99.90
2018-10-16T18:29:06.239Z,99.90
2018-10-16T18:31:35.612Z,99.90
2018-10-16T18:34:05.063Z,99.90
2018-10-16T18:36:34.389Z,99.90
2018-10-16T18:39:03.994Z,99.90
2018-10-16T18:41:33.416Z,99.90
2018-10-16T18:44:02.792Z,99.90
2018-10-16T18:46:32.125Z,99.90
2018-10-16T18:49:01.570Z,99.90
2018-10-16T18:51:30.882Z,99.90
2018-10-16T18:54:00.286Z,99.90
2018-10-16T18:56:30.012Z,99.90
2018-10-16T18:58:59.611Z,99.90
2018-10-16T19:01:29.036Z,99.90
2018-10-16T19:03:58.402Z,99.90
2018-10-16T19:06:27.741Z,99.90
2018-10-16T19:08:57.143Z,99.90
2018-10-16T19:11:26.536Z,99.90
2018-10-16T19:13:55.938Z,99.90
2018-10-16T19:16:25.181Z,99.90
2018-10-16T19:18:54.658Z,99.90
2018-10-16T19:21:24.045Z,99.90
2018-10-16T19:23:53.458Z,99.90
2018-10-16T19:26:23.135Z,99.90
2018-10-16T19:28:52.487Z,99.90
2018-10-16T19:31:21.869Z,99.90
2018-10-16T19:33:51.320Z,99.90
2018-10-16T19:36:20.715Z,99.90
2018-10-16T19:38:50.024Z,99.90
2018-10-16T19:41:19.481Z,99.90
2018-10-16T19:43:48.906Z,99.90
2018-10-16T19:46:18.353Z,99.90
2018-10-16T19:48:47.663Z,99.90
2018-10-16T19:51:17.045Z,99.90
2018-10-16T19:53:46.671Z,99.90
2018-10-16T19:56:15.980Z,99.90
2018-10-16T19:58:45.324Z,99.90
2018-10-16T20:01:14.638Z,99.90
2018-10-16T20:03:44.060Z,99.90
2018-10-16T20:06:13.405Z,99.90
2018-10-16T20:08:43.125Z,99.90
2018-10-16T20:11:12.984Z,99.90
2018-10-16T20:13:42.303Z,99.90
2018-10-16T20:16:11.635Z,99.90
2018-10-16T20:18:41.091Z,99.90
2018-10-16T20:21:10.405Z,99.90
2018-10-16T20:23:39.795Z,99.90
2018-10-16T20:26:09.146Z,99.90
2018-10-16T20:28:38.610Z,99.90
2018-10-16T20:31:08.019Z,99.90
2018-10-16T20:33:37.298Z,99.90
2018-10-16T20:36:06.625Z,99.90
2018-10-16T20:38:35.921Z,99.90
2018-10-16T20:41:05.282Z,99.90
2018-10-16T20:43:35.120Z,99.90
2018-10-16T20:46:05.070Z,99.90
2018-10-16T20:48:34.548Z,99.90
2018-10-16T20:51:04.006Z,99.90
2018-10-16T20:53:33.401Z,99.90
2018-10-16T20:56:02.821Z,99.90
2018-10-16T20:58:32.210Z,99.90
2018-10-16T21:01:01.923Z,99.90
2018-10-16T21:03:31.155Z,99.90
2018-10-16T21:06:01.138Z,99.90
2018-10-16T21:08:30.358Z,99.90
2018-10-16T21:10:59.713Z,99.90
2018-10-16T21:13:29.027Z,99.90
2018-10-16T21:15:59.210Z,99.90
2018-10-16T21:18:28.513Z,99.90
2018-10-16T21:20:57.794Z,99.90
2018-10-16T21:23:27.112Z,99.90
2018-10-16T21:25:56.429Z,99.90
2018-10-16T21:28:25.819Z,99.90
2018-10-16T21:30:55.137Z,99.90
2018-10-16T21:33:24.471Z,99.90
2018-10-16T21:35:54.151Z,99.90
2018-10-16T21:38:23.527Z,99.90
2018-10-16T21:40:52.989Z,99.90
2018-10-16T21:43:22.295Z,99.90
2018-10-16T21:45:51.603Z,99.90
2018-10-16T21:48:21.656Z,99.90
2018-10-16T21:50:50.999Z,99.90
2018-10-16T21:53:20.310Z,99.90
2018-10-16T21:55:49.654Z,99.90
2018-10-16T21:58:18.958Z,99.90
2018-10-16T22:00:53.813Z,99.90
2018-10-16T22:03:23.109Z,99.90
2018-10-16T22:05:52.537Z,99.90
2018-10-16T22:08:21.822Z,99.90
2018-10-16T22:10:51.205Z,99.90
2018-10-16T22:13:20.562Z,99.90
2018-10-16T22:15:49.885Z,99.90
2018-10-16T22:18:19.231Z,99.90
2018-10-16T22:20:48.545Z,99.90
2018-10-16T22:23:17.909Z,99.90
2018-10-16T22:25:54.369Z,99.90
2018-10-16T22:28:23.722Z,99.90
2018-10-16T22:30:53.109Z,99.90
2018-10-16T22:33:22.490Z,99.90
2018-10-16T22:35:51.896Z,99.90
2018-10-16T22:38:21.338Z,99.90
2018-10-16T22:40:50.758Z,99.90
2018-10-16T22:43:20.013Z,99.90
2018-10-16T22:45:49.346Z,99.90
2018-10-16T22:48:18.658Z,99.90
2018-10-16T22:50:47.997Z,99.90
2018-10-16T22:53:17.415Z,99.90
2018-10-16T22:55:46.681Z,99.90
2018-10-16T22:58:15.994Z,99.90
2018-10-16T23:00:46.326Z,99.90
2018-10-16T23:03:15.653Z,99.90
2018-10-16T23:05:44.979Z,99.90
2018-10-16T23:08:14.283Z,99.90
2018-10-16T23:10:44.201Z,99.90
2018-10-16T23:13:13.619Z,99.90
2018-10-16T23:15:42.839Z,99.90
2018-10-16T23:18:12.140Z,99.90
2018-10-16T23:20:41.535Z,99.90
2018-10-16T23:23:10.860Z,99.90
2018-10-16T23:25:40.166Z,99.90
2018-10-16T23:28:09.555Z,99.90
2018-10-16T23:30:38.860Z,99.90
2018-10-16T23:33:08.179Z,99.90
2018-10-16T23:35:37.479Z,99.90
2018-10-16T23:38:06.843Z,99.90
2018-10-16T23:40:36.154Z,99.90
2018-10-16T23:43:05.891Z,99.90
2018-10-16T23:45:35.209Z,99.90
2018-10-16T23:48:04.515Z,99.90
2018-10-16T23:50:33.850Z,99.90
2018-10-16T23:53:03.250Z,99.90
2018-10-16T23:55:32.621Z,99.90
2018-10-16T23:58:01.932Z,99.90
